Main page
METAR-TAF:

METAR-TAF

Airports :

Calvi – Sainte-Catherine Airport

Calvi, France

latitude: 42-32N, longitude: 008-48E, elevation: 64 m

Current weather observation

The report was made 30 minutes ago, at 17:00 UTC
Wind 5 kt from the Northwest, varying between West and North
Temperature 26°C
Humidity 70%
Pressure 1015 hPa
Visibility 10 km or more
no clouds below 1500 m and no cumulonimbus

METAR: LFKC 201700Z AUTO 32005KT 280V010 CAVOK 26/20 Q1015 NOSIG

Time: 19:30 (17:30 UTC)

Forecast

The report was made 3 hours and 30 minutes ago, at 14:00 UTC
Forecast valid from 20 at 15 UTC to 21 at 15 UTC
Wind 12 kt from the North
Visibility 10 km or more
no clouds below 1500 m and no cumulonimbus
Becoming
from 20 at 18 UTC to 20 at 20 UTC
Wind 4 kt from the South
Becoming
from 21 at 07 UTC to 21 at 08 UTC
Wind 8 kt from the North

TAF: LFKC 201400Z 2015/2115 36012KT CAVOK TX29/2112Z TN18/2104Z BECMG 2018/2020 18004KT BECMG 2107/2108 35008KT

Weather observations and forecasts of more than 4000 airports (METAR and TAF reports).

The available stations are represented by yellow and red dots on the map.

Hover mouse over dot to see the name of the station.

Then click to see weather observations and forecasts.

To change the map : click on the green buttons with a black cross to zoom in, on the green button with a dash to zoom out, or on the green arrows for adjacent maps.


METAR-TAF: